Time;durP1;ratioP1;P1;durP2;ratioP2;P2;SDS_P1;SDS_P2;PMS_P1;PMS_P2;Temp;Humidity;BMP_temperature;BMP_pressure;BME280_temperature;BME280_humidity;BME280_pressure;Samples;Min_cycle;Max_cycle;Signal;HPM_P1;HPM_P2
2021/10/16 00:01:51;;;;;;;19.83;4.90;;;6.00;99.90;;;;;;4879487;29;20258;-89
2021/10/16 00:04:16;;;;;;;6.27;4.63;;;6.30;99.90;;;;;;4880674;29;20201;-90
2021/10/16 00:06:42;;;;;;;9.63;4.70;;;6.30;99.90;;;;;;4864613;29;20177;-90
2021/10/16 00:09:07;;;;;;;4.97;4.47;;;6.20;99.90;;;;;;4864455;29;20689;-90
2021/10/16 00:11:33;;;;;;;5.10;4.67;;;6.20;99.90;;;;;;4880927;29;20173;-90
2021/10/16 00:13:59;;;;;;;4.13;3.93;;;6.30;99.90;;;;;;4881084;29;20173;-90
2021/10/16 00:16:25;;;;;;;5.50;4.93;;;5.90;99.90;;;;;;4882728;29;20209;-89
2021/10/16 00:18:51;;;;;;;7.97;4.87;;;6.30;99.90;;;;;;4884531;29;20519;-90
2021/10/16 00:21:17;;;;;;;7.07;3.70;;;;;;;;;;4869605;29;20185;-91
2021/10/16 00:23:43;;;;;;;3.90;3.70;;;6.20;99.90;;;;;;4888438;29;20451;-91
2021/10/16 00:26:08;;;;;;;5.20;4.73;;;6.20;99.90;;;;;;4889234;29;20181;-90
2021/10/16 00:28:34;;;;;;;4.90;4.60;;;5.90;99.90;;;;;;4885715;29;20232;-91
2021/10/16 00:31:00;;;;;;;4.40;4.10;;;;;;;;;;4885262;29;20205;-89
2021/10/16 00:33:26;;;;;;;4.60;4.23;;;6.20;99.90;;;;;;4886645;29;20259;-89
2021/10/16 00:35:53;;;;;;;3.83;3.70;;;;;;;;;;4888525;29;20441;-90
2021/10/16 00:38:19;;;;;;;3.93;3.63;;;;;;;;;;4890590;29;20432;-89
2021/10/16 00:40:45;;;;;;;5.07;3.87;;;;;;;;;;4891463;29;20528;-90
2021/10/16 00:43:11;;;;;;;4.50;3.43;;;5.90;99.90;;;;;;4893572;29;20418;-89
2021/10/16 00:45:37;;;;;;;3.90;3.70;;;;;;;;;;4893444;29;20414;-91
2021/10/16 00:48:03;;;;;;;5.93;3.67;;;5.70;99.90;;;;;;4891927;29;20425;-90
2021/10/16 00:50:29;;;;;;;8.75;4.05;;;;;;;;;;4890428;29;20185;-91
2021/10/16 00:52:55;;;;;;;6.95;3.85;;;;;;;;;;4892490;29;20610;-90
2021/10/16 00:55:23;;;;;;;6.23;4.20;;;5.80;99.90;;;;;;4890459;29;20273;-90
2021/10/16 00:57:48;;;;;;;7.40;4.60;;;5.60;99.90;;;;;;4875782;29;20512;-90
2021/10/16 01:00:15;;;;;;;3.67;3.53;;;;;;;;;;4875472;29;20244;-90
2021/10/16 01:02:41;;;;;;;5.10;3.28;;;5.80;99.90;;;;;;4891738;29;20443;-90
2021/10/16 01:05:08;;;;;;;5.25;3.53;;;8.00;99.90;;;;;;4892983;29;20178;-90
2021/10/16 01:07:37;;;;;;;8.10;5.18;;;5.90;99.90;;;;;;4890757;29;20222;-90
2021/10/16 01:10:08;;;;;;;18.65;7.25;;;6.70;99.90;;;;;;4891703;29;20268;-89
2021/10/16 01:12:36;;;;;;;12.48;6.60;;;5.90;99.90;;;;;;4890014;29;20178;-90
2021/10/16 01:15:05;;;;;;;8.70;6.63;;;6.00;99.90;;;;;;4890263;29;20649;-90
2021/10/16 01:17:31;;;;;;;8.00;4.82;;;;;;;;;;4872669;29;20481;-90
2021/10/16 01:20:05;;;;;;;6.30;4.53;;;5.90;99.90;;;;;;4887357;29;20193;-90
2021/10/16 01:22:32;;;;;;;4.47;4.18;;;7.30;99.90;;;;;;4888134;29;20450;-90
2021/10/16 01:24:59;;;;;;;4.85;4.45;;;6.00;99.90;;;;;;4871594;29;20237;-90
2021/10/16 01:27:25;;;;;;;13.43;4.88;;;;;;;;;;4888076;29;20170;-90
2021/10/16 01:29:51;;;;;;;9.30;5.10;;;;;;;;;;4886828;29;20185;-90
2021/10/16 01:32:17;;;;;;;6.10;4.80;;;6.00;99.90;;;;;;4886848;29;20790;-89
2021/10/16 01:34:44;;;;;;;7.47;4.67;;;;;;;;;;4869913;29;20186;-90
2021/10/16 01:37:10;;;;;;;5.28;4.97;;;6.00;99.90;;;;;;4885680;29;20481;-89
2021/10/16 01:39:36;;;;;;;3.70;3.50;;;5.60;99.90;;;;;;4871300;29;20182;-89
2021/10/16 01:42:02;;;;;;;4.07;3.97;;;;;;;;;;4870160;29;20926;-89
2021/10/16 01:44:27;;;;;;;3.60;3.40;;;6.00;99.90;;;;;;4883012;29;20176;-89
2021/10/16 01:46:53;;;;;;;11.20;4.50;;;6.30;99.90;;;;;;4883090;29;20181;-89
2021/10/16 01:49:20;;;;;;;6.20;4.90;;;5.70;99.90;;;;;;4882622;29;20175;-89
2021/10/16 01:51:47;;;;;;;38.60;4.40;;;5.30;99.90;;;;;;4883079;29;20318;-89
2021/10/16 01:54:13;;;;;;;19.52;4.97;;;5.60;99.90;;;;;;4865911;29;20264;-89
2021/10/16 01:56:39;;;;;;;23.60;4.10;;;5.60;99.90;;;;;;4865707;29;20292;-89
2021/10/16 01:59:22;;;;;;;4.50;4.10;;;5.60;99.90;;;;;;4881517;29;20934;-89
2021/10/16 02:01:48;;;;;;;5.15;4.10;;;5.50;99.90;;;;;;4866291;29;20177;-88
2021/10/16 02:04:14;;;;;;;4.50;4.10;;;5.40;99.90;;;;;;4866171;29;20584;-89
2021/10/16 02:06:40;;;;;;;4.70;4.15;;;5.60;99.90;;;;;;4866197;29;20937;-89
2021/10/16 02:09:06;;;;;;;5.20;4.70;;;5.60;99.90;;;;;;4882618;29;20201;-89
2021/10/16 02:11:32;;;;;;;4.28;4.07;;;5.50;99.90;;;;;;4865771;29;20181;-90
2021/10/16 02:13:59;;;;;;;4.57;3.40;;;5.60;99.90;;;;;;4882475;29;20182;-89
2021/10/16 02:16:25;;;;;;;6.03;4.45;;;5.60;99.90;;;;;;4882102;29;20232;-89
2021/10/16 02:18:51;;;;;;;3.90;3.40;;;5.40;99.90;;;;;;4882554;29;20230;-89
2021/10/16 02:21:16;;;;;;;8.67;3.97;;;5.70;99.90;;;;;;4882751;29;20177;-90
2021/10/16 02:23:42;;;;;;;16.23;3.90;;;5.70;99.90;;;;;;4882475;29;20165;-89
2021/10/16 02:26:07;;;;;;;5.10;3.77;;;5.70;99.90;;;;;;4881109;29;20185;-89
2021/10/16 02:28:33;;;;;;;3.07;2.97;;;5.70;99.90;;;;;;4882459;29;20264;-89
2021/10/16 02:30:59;;;;;;;21.13;3.70;;;5.70;99.90;;;;;;4865783;29;20192;-89
2021/10/16 02:33:24;;;;;;;3.80;3.60;;;5.70;99.90;;;;;;4882426;29;20181;-89
2021/10/16 02:35:50;;;;;;;4.63;2.67;;;;;;;;;;4865611;29;20256;-90
2021/10/16 02:38:16;;;;;;;4.27;3.87;;;5.70;99.90;;;;;;4882423;29;20189;-88
2021/10/16 02:40:41;;;;;;;6.20;3.80;;;5.40;99.90;;;;;;4866101;29;20469;-89
2021/10/16 02:43:07;;;;;;;3.97;3.70;;;5.50;99.90;;;;;;4866179;29;20181;-90
2021/10/16 02:45:33;;;;;;;6.73;3.60;;;5.50;99.90;;;;;;4866880;29;20227;-90
2021/10/16 02:47:58;;;;;;;3.57;3.47;;;5.40;99.90;;;;;;4866006;29;20197;-90
2021/10/16 02:50:24;;;;;;;4.30;3.80;;;6.10;99.90;;;;;;4866923;29;20174;-90
2021/10/16 02:52:50;;;;;;;3.50;3.20;;;5.30;99.90;;;;;;4867588;29;20173;-90
2021/10/16 02:55:16;;;;;;;11.33;4.47;;;5.40;99.90;;;;;;4866469;29;20185;-89
2021/10/16 02:57:42;;;;;;;3.90;3.70;;;5.20;99.90;;;;;;4867337;29;20221;-90
2021/10/16 03:00:09;;;;;;;4.03;3.90;;;5.10;99.90;;;;;;4881707;29;20257;-90
2021/10/16 03:02:37;;;;;;;8.90;3.72;;;5.10;99.90;;;;;;4883790;29;20757;-90
2021/10/16 03:05:04;;;;;;;4.03;3.53;;;6.20;99.90;;;;;;4883552;29;20302;-90
2021/10/16 03:07:30;;;;;;;4.63;4.32;;;5.20;99.90;;;;;;4867524;29;20185;-91
2021/10/16 03:09:56;;;;;;;11.70;5.00;;;5.20;99.90;;;;;;4868576;29;20177;-90
2021/10/16 03:12:22;;;;;;;10.53;4.80;;;5.40;99.90;;;;;;4868029;29;20224;-90
2021/10/16 03:14:47;;;;;;;6.13;4.30;;;5.40;99.90;;;;;;4866922;29;20437;-89
2021/10/16 03:17:13;;;;;;;5.90;5.13;;;5.40;99.90;;;;;;4882781;29;20269;-90
2021/10/16 03:19:38;;;;;;;4.57;4.27;;;5.00;99.90;;;;;;4867333;29;20180;-90
2021/10/16 03:22:05;;;;;;;4.87;3.07;;;6.40;99.90;;;;;;4867614;29;20207;-90
2021/10/16 03:24:31;;;;;;;2.28;2.28;;;5.20;99.90;;;;;;4883356;29;20173;-89
2021/10/16 03:26:57;;;;;;;2.80;2.70;;;5.20;99.90;;;;;;4882613;29;20181;-90
2021/10/16 03:29:22;;;;;;;2.87;2.63;;;5.20;99.90;;;;;;4866174;29;20628;-89
2021/10/16 03:31:48;;;;;;;2.70;2.70;;;5.00;99.90;;;;;;4882770;29;20592;-90
2021/10/16 03:34:14;;;;;;;4.17;4.00;;;;;;;;;;4883371;29;20209;-90
2021/10/16 03:36:40;;;;;;;3.00;2.90;;;5.00;99.90;;;;;;4882838;29;20213;-89
2021/10/16 03:39:06;;;;;;;3.22;3.05;;;;;;;;;;4866221;29;20426;-90
2021/10/16 03:41:32;;;;;;;3.42;3.35;;;;;;;;;;4882553;29;20173;-90
2021/10/16 03:43:58;;;;;;;3.10;3.00;;;;;;;;;;4884562;29;20561;-91
2021/10/16 03:46:24;;;;;;;3.40;3.25;;;;;;;;;;4882966;29;20446;-90
2021/10/16 03:48:50;;;;;;;4.00;3.70;;;;;;;;;;4880420;29;20177;-89
2021/10/16 03:51:15;;;;;;;4.17;3.97;;;4.90;99.90;;;;;;4881664;29;20419;-88
2021/10/16 03:53:41;;;;;;;2.90;2.80;;;4.80;99.90;;;;;;4867223;29;20942;-89
2021/10/16 03:56:06;;;;;;;4.00;3.83;;;4.80;99.90;;;;;;4883304;29;20563;-88
2021/10/16 03:58:32;;;;;;;3.80;3.60;;;4.80;99.90;;;;;;4867073;29;20184;-89
2021/10/16 04:01:02;;;;;;;3.00;2.97;;;4.80;99.90;;;;;;4867931;29;20177;-90
2021/10/16 04:03:28;;;;;;;4.38;4.07;;;;;;;;;;4867955;29;20184;-89
2021/10/16 04:05:54;;;;;;;4.70;4.45;;;4.10;99.90;;;;;;4882044;29;20201;-89
2021/10/16 04:08:20;;;;;;;3.40;3.30;;;;;;;;;;4881070;29;20542;-89
2021/10/16 04:10:45;;;;;;;4.33;3.90;;;4.70;99.90;;;;;;4882121;29;20180;-89
2021/10/16 04:13:11;;;;;;;3.83;3.63;;;4.70;99.90;;;;;;4883968;29;20422;-89
2021/10/16 04:15:37;;;;;;;7.33;4.50;;;4.60;99.90;;;;;;4884035;29;20176;-90
2021/10/16 04:18:03;;;;;;;3.93;3.63;;;4.60;99.90;;;;;;4884518;29;20481;-90
2021/10/16 04:20:29;;;;;;;3.85;3.65;;;5.10;99.90;;;;;;4872377;29;20418;-90
2021/10/16 04:22:55;;;;;;;4.20;4.00;;;;;;;;;;4869363;29;20207;-90
2021/10/16 04:25:22;;;;;;;3.72;3.63;;;;;;;;;;4891080;29;20428;-91
2021/10/16 04:27:48;;;;;;;3.90;3.75;;;;;;;;;;4211086;29;10021455;-90
2021/10/16 04:30:15;;;;;;;4.45;4.25;;;4.50;99.90;;;;;;4900609;29;20446;-91
2021/10/16 04:32:41;;;;;;;4.30;4.00;;;;;;;;;;4898887;29;20236;-90
2021/10/16 04:35:08;;;;;;;4.67;4.37;;;4.50;99.90;;;;;;4901325;29;20213;-91
2021/10/16 04:37:35;;;;;;;4.50;4.25;;;;;;;;;;4899737;29;20487;-91
2021/10/16 04:40:09;;;;;;;16.30;4.70;;;;;;;;;;4901418;29;20177;-89
2021/10/16 04:42:35;;;;;;;7.07;4.10;;;;;;;;;;4901790;29;20601;-89
2021/10/16 04:45:01;;;;;;;4.30;4.03;;;4.60;99.90;;;;;;4900885;29;20173;-89
2021/10/16 04:47:28;;;;;;;5.50;4.40;;;4.60;99.90;;;;;;4884057;29;20608;-89
2021/10/16 04:49:54;;;;;;;4.43;4.13;;;;;;;;;;4898190;29;20180;-89
2021/10/16 04:52:20;;;;;;;3.93;3.77;;;;;;;;;;4902084;29;20168;-89
2021/10/16 04:54:48;;;;;;;3.80;3.60;;;4.70;99.90;;;;;;4900422;29;20457;-88
2021/10/16 04:57:13;;;;;;;4.55;4.28;;;;;;;;;;4900431;29;20477;-89
2021/10/16 04:59:39;;;;;;;4.63;4.13;;;4.70;99.90;;;;;;4901677;29;20217;-90
2021/10/16 05:02:05;;;;;;;3.10;3.00;;;;;;;;;;4885531;29;20436;-89
2021/10/16 05:04:33;;;;;;;4.10;3.90;;;4.80;99.90;;;;;;4901688;29;20181;-89
2021/10/16 05:06:59;;;;;;;8.05;3.90;;;;;;;;;;4901052;29;20794;-89
2021/10/16 05:09:25;;;;;;;9.40;3.53;;;;;;;;;;4900050;29;20271;-90
2021/10/16 05:11:50;;;;;;;4.70;4.40;;;4.80;99.90;;;;;;4900879;29;20521;-90
2021/10/16 05:14:16;;;;;;;12.87;4.50;;;4.60;99.90;;;;;;4883917;29;20490;-89
2021/10/16 05:16:41;;;;;;;3.73;3.53;;;4.60;99.90;;;;;;4901116;29;20220;-89
2021/10/16 05:19:07;;;;;;;4.20;3.80;;;;;;;;;;4901468;29;20180;-88
2021/10/16 05:21:33;;;;;;;3.87;3.60;;;4.60;99.90;;;;;;4904104;29;20201;-89
2021/10/16 05:23:59;;;;;;;4.20;3.90;;;3.40;99.90;;;;;;4888712;29;20421;-89
2021/10/16 05:26:25;;;;;;;3.90;3.80;;;;;;;;;;4903612;29;20187;-90
2021/10/16 05:28:51;;;;;;;3.50;3.40;;;;;;;;;;4902832;29;20244;-89
2021/10/16 05:31:17;;;;;;;4.63;3.90;;;;;;;;;;4904170;29;20984;-89
2021/10/16 05:33:43;;;;;;;7.27;4.13;;;;;;;;;;4903537;29;20440;-89
2021/10/16 05:36:09;;;;;;;3.65;3.45;;;4.50;99.90;;;;;;4903819;29;20662;-89
2021/10/16 05:38:35;;;;;;;4.83;4.33;;;;;;;;;;4904675;29;20204;-89
2021/10/16 05:41:01;;;;;;;6.20;4.50;;;;;;;;;;4902345;29;20580;-89
2021/10/16 05:43:26;;;;;;;4.50;4.20;;;4.50;99.90;;;;;;4902542;29;20469;-89
2021/10/16 05:45:52;;;;;;;4.20;4.00;;;3.70;99.90;;;;;;4886645;29;20508;-91
2021/10/16 05:48:17;;;;;;;3.90;3.80;;;4.60;99.90;;;;;;4887561;29;20180;-89
2021/10/16 05:50:43;;;;;;;6.60;4.20;;;4.50;99.90;;;;;;4888019;29;20173;-89
2021/10/16 05:53:09;;;;;;;4.63;4.33;;;4.70;99.90;;;;;;4905265;29;20176;-88
2021/10/16 05:55:34;;;;;;;6.17;5.50;;;4.50;99.90;;;;;;4904959;29;20541;-89
2021/10/16 05:58:00;;;;;;;14.97;6.43;;;4.60;99.90;;;;;;4888430;29;20220;-90
2021/10/16 06:00:25;;;;;;;8.07;5.97;;;4.50;99.90;;;;;;4887100;29;20177;-89
2021/10/16 06:02:51;;;;;;;8.00;6.80;;;;;;;;;;4887906;29;20187;-89
2021/10/16 06:05:18;;;;;;;6.25;5.78;;;;;;;;;;4901515;29;20173;-88
2021/10/16 06:07:43;;;;;;;8.45;5.93;;;4.80;99.90;;;;;;4902650;29;20185;-89
2021/10/16 06:10:09;;;;;;;7.70;6.23;;;4.90;99.90;;;;;;4886595;29;20183;-89
2021/10/16 06:12:35;;;;;;;5.85;5.45;;;4.90;99.90;;;;;;4901721;29;20176;-88
2021/10/16 06:15:01;;;;;;;5.83;5.40;;;;;;;;;;4886274;29;20209;-89
2021/10/16 06:17:28;;;;;;;6.60;5.17;;;;;;;;;;4903344;29;20232;-90
2021/10/16 06:19:54;;;;;;;6.03;5.43;;;;;;;;;;4907617;29;20429;-89
2021/10/16 06:22:20;;;;;;;7.00;5.47;;;;;;;;;;4901674;29;20203;-89
2021/10/16 06:24:45;;;;;;;6.22;5.82;;;5.30;99.90;;;;;;4902750;29;20449;-89
2021/10/16 06:27:11;;;;;;;8.20;5.20;;;5.00;99.90;;;;;;4885763;29;20239;-89
2021/10/16 06:29:36;;;;;;;12.87;5.90;;;5.50;99.90;;;;;;4886876;29;20224;-88
2021/10/16 06:32:03;;;;;;;7.77;5.17;;;;;;;;;;4885348;29;20188;-89
2021/10/16 06:34:28;;;;;;;5.75;5.15;;;5.60;99.90;;;;;;4904407;29;20181;-89
2021/10/16 06:36:54;;;;;;;8.70;6.77;;;;;;;;;;4904346;29;20263;-89
2021/10/16 06:39:20;;;;;;;5.00;4.60;;;5.80;99.90;;;;;;4900019;29;20263;-89
2021/10/16 06:41:45;;;;;;;4.77;4.57;;;6.20;99.90;;;;;;4903679;29;20746;-88
2021/10/16 06:44:11;;;;;;;4.73;4.43;;;5.80;99.90;;;;;;4901900;29;20169;-89
2021/10/16 06:46:36;;;;;;;4.40;4.10;;;5.90;99.90;;;;;;4885847;29;20188;-89
2021/10/16 06:49:02;;;;;;;4.77;4.33;;;6.00;99.90;;;;;;4904289;29;20193;-90
2021/10/16 06:51:27;;;;;;;4.87;4.50;;;6.00;99.90;;;;;;4903002;29;20177;-90
2021/10/16 06:53:53;;;;;;;4.67;4.17;;;6.50;99.90;;;;;;4898779;29;20168;-88
2021/10/16 06:56:18;;;;;;;4.03;3.47;;;6.90;99.90;;;;;;4900665;29;20247;-89
2021/10/16 06:58:44;;;;;;;4.20;3.90;;;6.90;99.90;;;;;;4901887;29;20169;-88
2021/10/16 07:01:09;;;;;;;4.17;3.57;;;7.40;99.90;;;;;;4869416;29;20173;-89
2021/10/16 07:03:35;;;;;;;3.47;3.17;;;7.80;99.90;;;;;;4890601;29;20173;-89
2021/10/16 07:06:00;;;;;;;3.17;3.17;;;8.30;99.90;;;;;;4891668;29;20301;-89
2021/10/16 07:08:29;;;;;;;3.57;3.33;;;;;;;;;;4902140;29;20172;-88
2021/10/16 07:10:58;;;;;;;3.97;3.67;;;9.80;98.00;;;;;;4890348;29;20272;-91
2021/10/16 07:13:24;;;;;;;3.50;3.30;;;9.80;99.90;;;;;;4899280;29;20485;-88
2021/10/16 07:15:50;;;;;;;5.33;4.10;;;11.60;98.00;;;;;;4901161;29;20440;-89
2021/10/16 07:18:16;;;;;;;4.33;4.00;;;;;;;;;;4902202;29;20842;-90
2021/10/16 07:20:42;;;;;;;5.60;5.27;;;;;;;;;;4901516;29;20221;-88
2021/10/16 07:23:08;;;;;;;5.10;4.53;;;9.90;96.00;;;;;;4900895;29;20936;-90
2021/10/16 07:25:34;;;;;;;3.90;3.60;;;10.60;97.80;;;;;;4901465;29;20425;-90
2021/10/16 07:28:00;;;;;;;6.37;5.50;;;;;;;;;;4902615;29;20216;-90
2021/10/16 07:30:26;;;;;;;5.77;5.23;;;9.90;95.80;;;;;;4901780;29;20928;-89
2021/10/16 07:32:52;;;;;;;9.10;5.53;;;12.20;98.40;;;;;;4904523;29;20717;-88
2021/10/16 07:35:20;;;;;;;7.00;5.00;;;12.10;98.30;;;;;;4887056;29;20429;-90
2021/10/16 07:37:46;;;;;;;5.47;5.07;;;9.60;96.10;;;;;;4888126;29;20212;-89
2021/10/16 07:40:12;;;;;;;5.93;5.47;;;8.70;97.10;;;;;;4905491;29;20425;-89
2021/10/16 07:42:38;;;;;;;5.30;4.90;;;;;;;;;;4906281;29;20188;-89
2021/10/16 07:45:04;;;;;;;5.07;4.60;;;9.70;97.20;;;;;;4906181;29;20514;-88
2021/10/16 07:47:29;;;;;;;3.60;3.50;;;9.70;98.60;;;;;;4903197;29;20464;-89
2021/10/16 07:49:55;;;;;;;4.40;4.03;;;8.20;97.30;;;;;;4900338;29;20724;-87
2021/10/16 07:52:21;;;;;;;3.73;3.63;;;9.40;98.70;;;;;;4900112;29;20177;-90
2021/10/16 07:54:48;;;;;;;4.77;4.47;;;9.00;99.00;;;;;;4898892;29;20425;-90
2021/10/16 07:57:14;;;;;;;8.87;4.90;;;9.50;98.80;;;;;;4900865;29;20468;-90
2021/10/16 07:59:41;;;;;;;6.57;5.70;;;9.50;99.00;;;;;;4899792;29;20493;-90
2021/10/16 08:02:06;;;;;;;5.90;5.07;;;9.60;99.30;;;;;;4897971;29;20928;-89
2021/10/16 08:04:32;;;;;;;4.70;4.43;;;;;;;;;;4900488;29;20508;-89
2021/10/16 08:06:58;;;;;;;5.70;5.20;;;10.00;97.40;;;;;;4221979;29;10000724;-89
2021/10/16 08:09:28;;;;;;;5.40;5.00;;;9.70;98.40;;;;;;4898062;29;20237;-90
2021/10/16 08:11:54;;;;;;;5.83;5.30;;;10.20;98.00;;;;;;4896664;29;20172;-88
2021/10/16 08:14:19;;;;;;;10.90;8.10;;;12.00;99.00;;;;;;4897131;29;20413;-89
2021/10/16 08:16:45;;;;;;;14.23;8.83;;;10.40;96.90;;;;;;4899609;29;20200;-89
2021/10/16 08:19:10;;;;;;;14.87;9.47;;;12.40;97.40;;;;;;4901853;29;20693;-87
2021/10/16 08:21:36;;;;;;;5.73;5.10;;;;;;;;;;4908636;29;20581;-89
2021/10/16 08:24:03;;;;;;;6.47;5.37;;;10.60;96.10;;;;;;4904353;29;20637;-89
2021/10/16 08:26:29;;;;;;;6.90;5.60;;;10.60;96.70;;;;;;4902475;29;20421;-88
2021/10/16 08:28:55;;;;;;;7.60;5.90;;;10.80;96.10;;;;;;4900103;29;20562;-91
2021/10/16 08:31:20;;;;;;;5.37;4.80;;;11.30;96.00;;;;;;4881591;29;20434;-88
2021/10/16 08:33:46;;;;;;;6.37;5.77;;;12.00;94.60;;;;;;4878525;29;20233;-89
2021/10/16 08:36:13;;;;;;;5.87;4.90;;;12.30;93.10;;;;;;4878484;29;20296;-90
2021/10/16 08:38:42;;;;;;;5.13;4.20;;;11.90;92.00;;;;;;4878582;29;20421;-90
2021/10/16 08:41:12;;;;;;;4.90;4.60;;;12.40;91.50;;;;;;4878698;29;20467;-89
2021/10/16 08:43:39;;;;;;;6.07;4.27;;;12.30;91.70;;;;;;4879228;29;20422;-88
2021/10/16 08:46:05;;;;;;;5.80;5.30;;;12.90;92.00;;;;;;4878415;29;20990;-88
2021/10/16 08:48:31;;;;;;;7.67;4.20;;;;;;;;;;4879397;29;20512;-88
2021/10/16 08:50:58;;;;;;;6.43;4.70;;;14.60;89.00;;;;;;4878962;29;20252;-88
2021/10/16 08:53:27;;;;;;;4.83;4.43;;;16.30;80.20;;;;;;4884253;29;20441;-90
2021/10/16 08:55:54;;;;;;;8.13;5.00;;;17.10;76.30;;;;;;4881385;29;20847;-89
2021/10/16 08:58:21;;;;;;;5.10;4.60;;;;;;;;;;4894455;29;20432;-87
2021/10/16 09:00:52;;;;;;;6.03;5.43;;;;;;;;;;4901351;29;20433;-88
2021/10/16 09:03:27;;;;;;;4.90;4.50;;;19.90;57.20;;;;;;4900525;29;20413;-89
2021/10/16 09:06:03;;;;;;;5.73;5.03;;;20.10;55.60;;;;;;4897523;29;20437;-89
2021/10/16 09:08:31;;;;;;;6.20;5.67;;;19.10;56.80;;;;;;4885381;29;20414;-87
2021/10/16 09:11:22;;;;;;;7.47;5.50;;;18.20;58.00;;;;;;4880345;29;20489;-89
2021/10/16 09:13:54;;;;;;;7.17;5.50;;;17.50;59.80;;;;;;4880431;29;20505;-88
2021/10/16 09:16:31;;;;;;;9.67;4.87;;;17.40;61.20;;;;;;4879948;29;20460;-87
2021/10/16 09:19:18;;;;;;;10.73;4.70;;;17.00;62.50;;;;;;4880485;29;20472;-87
2021/10/16 09:21:49;;;;;;;8.03;5.47;;;17.00;65.50;;;;;;4874433;29;20445;-89
2021/10/16 09:24:19;;;;;;;8.53;6.00;;;16.00;66.10;;;;;;4880755;29;20863;-87
2021/10/16 09:26:49;;;;;;;7.03;4.73;;;16.20;68.40;;;;;;4881308;29;20410;-88
2021/10/16 09:29:16;;;;;;;11.80;4.93;;;16.10;68.60;;;;;;4881311;29;20477;-88
2021/10/16 09:31:45;;;;;;;6.33;4.23;;;16.20;66.90;;;;;;4881399;29;20433;-88
2021/10/16 09:34:14;;;;;;;7.93;4.40;;;15.90;68.40;;;;;;4881111;29;20474;-87
2021/10/16 09:36:41;;;;;;;8.60;5.30;;;17.10;72.40;;;;;;4865268;29;20496;-93
2021/10/16 09:39:15;;;;;;;9.20;4.30;;;15.20;73.60;;;;;;4868789;29;20835;-88
2021/10/16 09:41:41;;;;;;;8.07;4.63;;;15.00;76.20;;;;;;4886024;29;20444;-89
2021/10/16 09:44:22;;;;;;;9.27;4.30;;;14.90;76.30;;;;;;4886290;29;20750;-90
2021/10/16 09:47:07;;;;;;;4.87;4.47;;;15.50;78.10;;;;;;4879834;29;20184;-90
2021/10/16 09:49:50;;;;;;;9.63;5.03;;;14.80;79.80;;;;;;4901624;29;20569;-88
2021/10/16 09:52:19;;;;;;;5.10;3.73;;;16.50;82.30;;;;;;4900709;29;20432;-88
2021/10/16 09:54:47;;;;;;;5.97;4.57;;;17.00;83.70;;;;;;4901492;29;20421;-89
2021/10/16 09:57:15;;;;;;;7.60;4.40;;;17.60;81.90;;;;;;4885339;29;20969;-89
2021/10/16 09:59:42;;;;;;;10.60;4.07;;;15.20;72.50;;;;;;4903477;29;20893;-90
2021/10/16 10:02:09;;;;;;;4.27;4.00;;;18.30;72.10;;;;;;4904579;29;20421;-88
2021/10/16 10:04:40;;;;;;;7.10;3.67;;;17.00;66.70;;;;;;4885969;29;20417;-89
2021/10/16 10:07:08;;;;;;;6.50;4.30;;;18.50;68.20;;;;;;4886968;29;20433;-88
2021/10/16 10:09:34;;;;;;;12.63;6.37;;;17.60;64.50;;;;;;4890003;29;20481;-87
2021/10/16 10:12:01;;;;;;;5.77;4.10;;;17.50;64.40;;;;;;4886079;29;20436;-89
2021/10/16 10:14:27;;;;;;;11.60;5.30;;;17.90;64.40;;;;;;4886438;29;20504;-89
2021/10/16 10:16:57;;;;;;;4.30;4.00;;;17.70;60.10;;;;;;4886543;29;20555;-89
2021/10/16 10:19:23;;;;;;;8.60;4.07;;;19.40;59.20;;;;;;4557973;29;10000136;-91
2021/10/16 10:21:50;;;;;;;7.50;4.30;;;18.40;58.20;;;;;;4864657;29;20177;-88
2021/10/16 10:24:16;;;;;;;9.83;4.40;;;21.00;62.50;;;;;;4879541;29;20522;-88
2021/10/16 10:26:43;;;;;;;9.03;5.73;;;18.70;59.00;;;;;;4879646;29;20908;-88
2021/10/16 10:29:16;;;;;;;5.17;2.77;;;19.40;56.30;;;;;;4879762;29;20564;-89
2021/10/16 10:31:45;;;;;;;6.60;2.53;;;;;;;;;;4881775;29;20426;-89
2021/10/16 10:34:31;;;;;;;4.60;3.10;;;;;;;;;;4879881;29;20418;-90
2021/10/16 10:37:01;;;;;;;4.23;2.87;;;;;;;;;;4884234;29;20970;-90
2021/10/16 10:39:33;;;;;;;6.97;3.60;;;;;;;;;;4884458;29;21179;-90
2021/10/16 10:42:21;;;;;;;3.50;2.80;;;;;;;;;;4886201;29;20426;-86
2021/10/16 10:44:57;;;;;;;8.40;3.07;;;;;;;;;;4884969;29;20965;-89
2021/10/16 10:47:36;;;;;;;5.20;3.07;;;;;;;;;;4882981;29;20913;-92
2021/10/16 10:50:02;;;;;;;5.33;3.27;;;;;;;;;;4882298;29;20777;-90
2021/10/16 10:52:29;;;;;;;17.27;8.63;;;;;;;;;;4882760;29;20449;-90
2021/10/16 10:55:08;;;;;;;9.73;6.70;;;;;;;;;;4882972;29;20406;-88
2021/10/16 10:58:00;;;;;;;6.87;3.40;;;;;;;;;;4882170;29;20509;-91
2021/10/16 11:00:39;;;;;;;4.13;3.60;;;;;;;;;;4884336;29;20410;-92
2021/10/16 11:03:25;;;;;;;10.13;3.80;;;;;;;;;;4883070;29;20460;-90
2021/10/16 11:05:51;;;;;;;5.00;2.70;;;;;;;;;;4871769;29;20418;-90
2021/10/16 11:08:17;;;;;;;3.33;2.67;;;;;;;;;;4884603;29;20410;-92
2021/10/16 11:10:43;;;;;;;4.50;3.03;;;;;;;;;;4884255;29;20514;-91
2021/10/16 11:13:14;;;;;;;2.77;2.67;;;;;;;;;;4885941;29;20414;-92
2021/10/16 11:15:43;;;;;;;4.30;2.70;;;;;;;;;;4886091;29;20411;-88
2021/10/16 11:18:10;;;;;;;4.00;2.23;;;;;;;;;;4887864;29;20509;-90
2021/10/16 11:20:36;;;;;;;2.53;2.20;;;;;;;;;;4882141;29;20422;-90
2021/10/16 11:23:02;;;;;;;7.57;3.40;;;;;;;;;;4885805;29;20433;-90
2021/10/16 11:25:29;;;;;;;5.37;3.00;;;;;;;;;;4888314;29;20466;-89
2021/10/16 11:28:04;;;;;;;7.30;3.57;;;21.40;40.90;;;;;;4882994;29;20522;-89
2021/10/16 11:30:30;;;;;;;6.00;4.03;;;20.70;42.30;;;;;;4884111;29;20430;-91
2021/10/16 11:33:08;;;;;;;9.87;3.70;;;20.00;44.60;;;;;;4885047;29;20438;-92
2021/10/16 11:35:34;;;;;;;8.00;4.13;;;19.80;45.10;;;;;;4884936;29;20425;-88
2021/10/16 11:38:00;;;;;;;6.47;3.93;;;21.90;46.50;;;;;;4887247;29;20470;-91
2021/10/16 11:40:28;;;;;;;3.53;3.23;;;21.20;48.10;;;;;;4885495;29;20446;-89
2021/10/16 11:42:59;;;;;;;4.63;4.07;;;18.10;44.10;;;;;;4881460;29;20173;-89
2021/10/16 11:45:36;;;;;;;5.47;4.97;;;19.00;43.30;;;;;;4883982;29;20429;-91
2021/10/16 11:48:06;;;;;;;7.87;4.50;;;19.10;43.70;;;;;;4882371;29;20428;-90
2021/10/16 11:50:38;;;;;;;5.90;4.43;;;18.20;43.20;;;;;;4884646;29;20410;-90
2021/10/16 11:53:08;;;;;;;5.17;4.73;;;17.30;45.20;;;;;;4886757;29;20421;-91
2021/10/16 11:55:36;;;;;;;5.60;4.83;;;18.30;50.60;;;;;;4884802;29;20430;-90
2021/10/16 11:58:13;;;;;;;9.50;5.20;;;17.40;48.40;;;;;;4884810;29;20489;-89
2021/10/16 12:00:41;;;;;;;7.27;5.23;;;17.30;46.20;;;;;;4887332;29;20421;-88
2021/10/16 12:03:40;;;;;;;8.87;5.10;;;19.20;47.90;;;;;;4882826;29;20525;-91
2021/10/16 12:06:15;;;;;;;13.37;6.83;;;19.70;46.30;;;;;;4866750;29;20918;-88
2021/10/16 12:08:45;;;;;;;9.83;5.80;;;19.00;46.10;;;;;;4885971;29;20427;-90
2021/10/16 12:11:21;;;;;;;8.03;5.87;;;19.20;45.50;;;;;;4882280;29;20455;-89
2021/10/16 12:13:59;;;;;;;8.63;5.50;;;18.60;46.10;;;;;;4887329;29;20460;-92
2021/10/16 12:16:32;;;;;;;5.80;5.27;;;18.20;46.10;;;;;;4869986;29;20533;-89
2021/10/16 12:19:00;;;;;;;7.03;5.77;;;16.90;45.30;;;;;;4882378;29;21011;-88
2021/10/16 12:21:31;;;;;;;7.67;4.93;;;18.10;46.90;;;;;;4884919;29;20418;-89
2021/10/16 12:23:59;;;;;;;6.00;5.07;;;17.00;46.50;;;;;;4883306;29;20953;-91
2021/10/16 12:26:32;;;;;;;5.73;5.07;;;18.50;48.60;;;;;;4885291;29;20524;-88
2021/10/16 12:28:59;;;;;;;7.70;6.03;;;16.90;47.00;;;;;;4885459;29;20469;-90
2021/10/16 12:31:25;;;;;;;5.80;5.23;;;17.90;49.10;;;;;;4886752;29;20433;-89
2021/10/16 12:34:22;;;;;;;5.83;4.83;;;18.10;51.10;;;;;;4887796;29;20418;-90
2021/10/16 12:37:02;;;;;;;9.93;4.30;;;16.20;50.10;;;;;;4882663;29;20228;-90
2021/10/16 12:39:38;;;;;;;5.30;4.20;;;16.70;48.40;;;;;;4886519;29;20837;-90
2021/10/16 12:42:13;;;;;;;7.70;3.87;;;18.80;47.90;;;;;;4887958;29;20421;-88
2021/10/16 12:44:44;;;;;;;5.53;4.40;;;19.60;44.80;;;;;;4888738;29;20429;-92
2021/10/16 12:47:13;;;;;;;7.00;4.60;;;;;;;;;;4873107;29;20425;-91
2021/10/16 12:49:51;;;;;;;6.33;4.00;;;;;;;;;;4888452;29;20433;-91
2021/10/16 12:52:24;;;;;;;3.87;3.33;;;;;;;;;;4889765;29;20418;-91
2021/10/16 12:54:58;;;;;;;4.27;3.57;;;;;;;;;;4891041;29;20462;-91
2021/10/16 12:57:25;;;;;;;6.00;4.00;;;;;;;;;;4878910;29;20827;-91
2021/10/16 12:59:51;;;;;;;7.77;4.10;;;;;;;;;;4888740;29;20420;-89
2021/10/16 13:02:20;;;;;;;4.20;3.90;;;;;;;;;;4889084;29;20416;-91
2021/10/16 13:04:49;;;;;;;4.87;4.13;;;;;;;;;;4889881;29;20432;-91
2021/10/16 13:07:15;;;;;;;6.57;5.07;;;;;;;;;;4888308;29;20429;-90
2021/10/16 13:09:42;;;;;;;4.70;4.40;;;;;;;;;;4888298;29;20457;-90
2021/10/16 13:12:08;;;;;;;5.33;4.87;;;;;;;;;;4890498;29;20509;-89
2021/10/16 13:14:39;;;;;;;7.83;5.70;;;;;;;;;;4888729;29;20414;-91
2021/10/16 13:17:05;;;;;;;6.93;4.93;;;;;;;;;;4204946;29;10000817;-90
2021/10/16 13:19:34;;;;;;;6.37;4.20;;;;;;;;;;4867691;29;20185;-90
2021/10/16 13:21:59;;;;;;;7.20;4.70;;;22.60;37.00;;;;;;4867524;29;20437;-90
2021/10/16 13:24:25;;;;;;;6.60;4.13;;;21.90;41.20;;;;;;4850828;29;20966;-89
2021/10/16 13:26:55;;;;;;;9.53;5.13;;;20.60;40.40;;;;;;4851413;29;20185;-89